ENSD/SDN METAR and TAF weather

Enter ICAO airport designator
Station Type Date Time Source
ENSD METAR 2020/11/26 21:20 UTC NOAA

ENSD 262120Z VRB02KT 9999 FEW005 SCT041 02/01 Q1018 RMK WIND 1138FT 18005KT


Station Type Date Time Source
ENSD Decoded METAR 2020/11/26 21:20 UTC NOAA

Sandane / Anda, Norway (ENSD) 61-50N 006-07E 60M
Nov 26, 2020 - 04:20 PM EST / 2020.11.26 2120 UTC
Wind: Variable at 2 MPH (2 KT):0
Visibility: greater than 7 mile(s):0
Sky conditions: partly cloudy
Temperature: 35 F (2 C)
Dew Point: 33 F (1 C)
Relative Humidity: 93%
Pressure (altimeter): 30.06 in. Hg (1018 hPa)
ob: ENSD 262120Z VRB02KT 9999 FEW005 SCT041 02/01 Q1018 RMK WIND 1138FT 18005KT
cycle: 21

Station Type Date Time Source
ENSD TAF UTC NOAA

Error!

Example: see airport list